createdAt,value
2023-01-29T10:44:37.827Z,101081.47
2023-01-29T10:47:24.281Z,101083.66
2023-01-29T10:50:04.779Z,101084.13
2023-01-29T10:52:44.635Z,101089.50
2023-01-29T10:55:21.620Z,101077.88
2023-01-29T10:58:05.553Z,101075.91
2023-01-29T11:00:39.659Z,101076.91
2023-01-29T11:03:27.823Z,101070.50
2023-01-29T11:06:14.483Z,101064.38
2023-01-29T11:08:42.327Z,101062.31
2023-01-29T11:11:19.493Z,101062.81
2023-01-29T11:14:07.379Z,101054.97
2023-01-29T11:17:00.601Z,101055.47
2023-01-29T11:19:40.695Z,101046.84
2023-01-29T11:22:20.234Z,101045.41
2023-01-29T11:25:18.229Z,101035.28
2023-01-29T11:27:56.542Z,101029.56
2023-01-29T11:30:34.307Z,101018.69
2023-01-29T11:33:20.526Z,101010.91
2023-01-29T11:35:48.696Z,101003.84
2023-01-29T11:38:16.562Z,101004.56
2023-01-29T11:40:45.082Z,100989.97
2023-01-29T11:43:31.479Z,100995.72
2023-01-29T11:46:24.513Z,100988.44
2023-01-29T11:49:02.443Z,100976.38
2023-01-29T11:51:35.176Z,100974.81
2023-01-29T11:54:07.746Z,100975.53
2023-01-29T11:56:44.703Z,100972.28
2023-01-29T11:59:50.330Z,100969.69
2023-01-29T12:02:37.851Z,100967.03
2023-01-29T12:08:24.539Z,100962.97
2023-01-29T12:11:24.776Z,100959.25
2023-01-29T12:17:04.696Z,100950.78
2023-01-29T12:20:09.863Z,100942.06
2023-01-29T12:22:48.133Z,100935.38
2023-01-29T12:25:55.284Z,100934.75
2023-01-29T12:28:34.581Z,100925.91
2023-01-29T12:31:08.825Z,100934.41
2023-01-29T12:33:44.068Z,100935.47
2023-01-29T12:36:21.869Z,100927.72
2023-01-29T12:38:50.102Z,100921.16
2023-01-29T12:41:33.222Z,100917.53
2023-01-29T12:44:21.235Z,100924.25
2023-01-29T12:47:23.167Z,100916.47
2023-01-29T12:50:04.067Z,100912.88
2023-01-29T12:53:06.553Z,100906.81
2023-01-29T12:55:43.248Z,100888.75
2023-01-29T12:58:52.521Z,100888.63
2023-01-29T13:01:42.656Z,100889.47
2023-01-29T13:04:19.561Z,100893.06
2023-01-29T13:06:59.603Z,100906.53
2023-01-29T13:09:33.527Z,100905.25
2023-01-29T13:12:12.755Z,100900.09
2023-01-29T13:15:05.828Z,100917.91
2023-01-29T13:17:38.252Z,100916.31
2023-01-29T13:20:19.001Z,100910.59
2023-01-29T13:22:49.411Z,100913.97
2023-01-29T13:25:20.486Z,100907.97
2023-01-29T13:34:33.406Z,100904.75
2023-01-29T13:37:43.387Z,100906.91
2023-01-29T13:40:40.605Z,100899.13
2023-01-29T13:43:23.504Z,100888.06
2023-01-29T13:45:54.545Z,100881.00
2023-01-29T13:48:43.873Z,100859.50
2023-01-29T13:51:33.721Z,100866.31
2023-01-29T13:54:17.331Z,100877.66
2023-01-29T13:57:01.166Z,100878.38
2023-01-29T13:59:53.652Z,100875.25
2023-01-29T14:02:30.474Z,100882.91
2023-01-29T14:05:37.361Z,100887.47
2023-01-29T14:08:35.591Z,100880.50
2023-01-29T14:11:29.673Z,100895.41
2023-01-29T14:13:59.120Z,100900.72
2023-01-29T14:16:35.738Z,100911.81
2023-01-29T14:19:06.282Z,100915.63
2023-01-29T14:21:43.882Z,100909.91
2023-01-29T14:24:29.489Z,100915.50
2023-01-29T14:27:36.065Z,100914.44
2023-01-29T14:30:15.608Z,100906.31
2023-01-29T14:32:48.259Z,100894.75
2023-01-29T14:38:26.032Z,100887.97
2023-01-29T14:44:45.791Z,100880.34
2023-01-29T14:47:43.296Z,100879.59
2023-01-29T14:50:52.092Z,100863.50
2023-01-29T14:53:58.008Z,100854.78
2023-01-29T14:56:37.488Z,100870.16
2023-01-29T14:59:31.481Z,100873.84
2023-01-29T15:02:35.284Z,100884.34
2023-01-29T15:05:11.825Z,100885.41
2023-01-29T15:07:47.836Z,100876.09
2023-01-29T15:10:35.960Z,100874.72
2023-01-29T15:13:17.821Z,100865.56
2023-01-29T15:16:03.124Z,100852.19
2023-01-29T15:18:42.608Z,100858.03
2023-01-29T15:24:48.885Z,100843.34
2023-01-29T15:28:10.708Z,100844.16
2023-01-29T15:30:39.224Z,100843.19
2023-01-29T15:33:33.033Z,100834.66
2023-01-29T15:36:08.002Z,100835.47
2023-01-29T15:38:37.070Z,100836.31
2023-01-29T15:41:21.636Z,100828.31
2023-01-29T15:43:56.845Z,100823.06
2023-01-29T15:47:40.155Z,100832.75
2023-01-29T15:51:00.123Z,100832.88
2023-01-29T15:53:49.347Z,100838.13
2023-01-29T15:56:24.721Z,100823.31
2023-01-29T15:58:53.141Z,100822.38
2023-01-29T16:01:21.917Z,100818.44
2023-01-29T16:10:35.479Z,100821.28
2023-01-29T16:13:56.328Z,100821.03
2023-01-29T16:16:25.890Z,100824.78
2023-01-29T16:19:00.457Z,100821.16
2023-01-29T16:21:29.290Z,100829.53
2023-01-29T16:24:10.954Z,100832.38
2023-01-29T16:27:01.152Z,100823.69
2023-01-29T16:29:33.925Z,100831.31
2023-01-29T16:32:04.086Z,100832.16
2023-01-29T16:34:45.434Z,100828.47
2023-01-29T16:37:31.560Z,100828.72
2023-01-29T16:40:01.220Z,100830.63
2023-01-29T16:46:49.350Z,100835.13
2023-01-29T16:49:30.215Z,100835.97
2023-01-29T16:52:15.926Z,100843.84
2023-01-29T16:54:44.095Z,100842.91
2023-01-29T16:57:26.489Z,100833.34
2023-01-29T16:59:57.624Z,100835.28
2023-01-29T17:02:50.980Z,100832.88
2023-01-29T17:05:31.345Z,100818.28
2023-01-29T17:08:00.650Z,100820.16
2023-01-29T17:13:39.518Z,100813.50
2023-01-29T17:16:26.022Z,100804.09
2023-01-29T17:18:54.076Z,100798.81
2023-01-29T17:22:01.198Z,100803.72
2023-01-29T17:24:29.601Z,100790.63
2023-01-29T17:26:58.074Z,100792.19
2023-01-29T17:29:32.643Z,100788.84
2023-01-29T17:32:42.874Z,100779.75
2023-01-29T17:35:14.694Z,100781.91
2023-01-29T17:37:43.781Z,100772.63
2023-01-29T17:40:21.860Z,100769.75
2023-01-29T17:43:05.506Z,100759.59
2023-01-29T17:45:48.572Z,100750.88
2023-01-29T17:48:28.382Z,100749.31
2023-01-29T17:51:06.183Z,100748.50
2023-01-29T17:53:45.184Z,100743.09
2023-01-29T17:56:23.881Z,100733.72
2023-01-29T17:58:51.956Z,100721.66
2023-01-29T18:01:19.956Z,100723.91
2023-01-29T18:03:54.766Z,100722.97
2023-01-29T18:06:30.038Z,100719.84
2023-01-29T18:09:53.513Z,100704.94
2023-01-29T18:12:47.795Z,100689.53
2023-01-29T18:15:28.905Z,100686.56
2023-01-29T18:18:01.394Z,100676.19
2023-01-29T18:20:38.951Z,100674.38
2023-01-29T18:26:01.585Z,100689.19
2023-01-29T18:28:34.596Z,100670.56
2023-01-29T18:31:04.283Z,100691.69
2023-01-29T18:33:34.453Z,100680.69
2023-01-29T18:38:51.259Z,100671.63
2023-01-29T18:41:19.395Z,100678.91
2023-01-29T18:43:50.448Z,100673.25
2023-01-29T18:46:19.189Z,100685.97
2023-01-29T18:48:49.144Z,100680.81
2023-01-29T18:54:38.149Z,100669.97
2023-01-29T18:57:13.570Z,100665.19
2023-01-29T18:59:44.208Z,100667.81
2023-01-29T19:02:17.582Z,100662.06
2023-01-29T19:07:47.407Z,100662.28
2023-01-29T19:10:19.002Z,100666.59
2023-01-29T19:12:48.713Z,100661.19
2023-01-29T19:15:20.798Z,100654.13
2023-01-29T19:17:51.165Z,100660.13
2023-01-29T19:20:19.330Z,100658.31
2023-01-29T19:22:48.727Z,100662.25
2023-01-29T19:25:22.134Z,100651.72
2023-01-29T19:27:50.142Z,100648.31
2023-01-29T19:30:19.765Z,100648.31
2023-01-29T19:32:47.818Z,100638.63
2023-01-29T19:35:18.140Z,100632.97
2023-01-29T19:37:55.578Z,100631.41
2023-01-29T19:40:30.296Z,100627.81
2023-01-29T19:42:59.086Z,100619.03
2023-01-29T19:48:41.380Z,100616.38
2023-01-29T19:51:46.268Z,100621.38
2023-01-29T19:54:14.454Z,100620.56
2023-01-29T19:56:42.692Z,100610.91
2023-01-29T19:59:14.722Z,100613.88
2023-01-29T20:01:44.904Z,100608.78
2023-01-29T20:04:13.047Z,100601.72
2023-01-29T20:06:40.962Z,100612.31
2023-01-29T20:09:08.939Z,100605.41
2023-01-29T20:11:36.867Z,100594.53
2023-01-29T20:14:05.090Z,100596.06
2023-01-29T20:16:33.870Z,100578.28
2023-01-29T20:19:13.231Z,100569.66
2023-01-29T20:21:45.839Z,100577.28
2023-01-29T20:24:14.928Z,100573.72
2023-01-29T20:26:43.568Z,100569.75
2023-01-29T20:29:11.991Z,100571.00
2023-01-29T20:31:39.892Z,100565.09
2023-01-29T20:34:08.100Z,100559.47
2023-01-29T20:36:39.877Z,100549.97
2023-01-29T20:39:12.134Z,100554.97
2023-01-29T20:41:45.764Z,100545.19
2023-01-29T20:44:16.362Z,100530.47
2023-01-29T20:46:46.322Z,100522.91
2023-01-29T20:49:14.653Z,100528.78
2023-01-29T20:51:47.280Z,100527.63
2023-01-29T20:54:16.037Z,100524.69
2023-01-29T20:56:45.251Z,100512.38
2023-01-29T20:59:15.927Z,100517.25
2023-01-29T21:01:44.595Z,100520.00
2023-01-29T21:04:12.633Z,100506.09
2023-01-29T21:06:40.479Z,100510.03
2023-01-29T21:09:08.669Z,100498.28
2023-01-29T21:11:36.670Z,100506.63
2023-01-29T21:14:07.270Z,100509.06
2023-01-29T21:16:35.469Z,100513.06
2023-01-29T21:19:03.939Z,100504.09
2023-01-29T21:21:37.472Z,100505.72
2023-01-29T21:24:13.325Z,100499.63
2023-01-29T21:26:42.143Z,100504.09
2023-01-29T21:29:11.657Z,100499.94
2023-01-29T21:31:48.885Z,100495.13
2023-01-29T21:34:17.978Z,100494.50
2023-01-29T21:36:53.442Z,100499.56
2023-01-29T21:39:33.489Z,100487.13
2023-01-29T21:42:20.289Z,100486.94
2023-01-29T21:44:51.677Z,100493.53
2023-01-29T21:47:19.700Z,100483.28
2023-01-29T21:50:09.025Z,100474.56
2023-01-29T21:52:37.326Z,100475.28
2023-01-29T21:55:13.609Z,100470.56
2023-01-29T22:00:56.901Z,100451.63
2023-01-29T22:04:07.786Z,100448.50
2023-01-29T22:06:36.155Z,100450.72
2023-01-29T22:09:04.103Z,100454.44
2023-01-29T22:11:41.956Z,100446.69
